createdAt,value
2023-02-11T15:31:39.057Z,77681.50
2023-02-11T15:32:45.218Z,77709.69
2023-02-11T15:33:47.365Z,77731.81
2023-02-11T15:34:51.541Z,77745.88
2023-02-11T15:35:53.534Z,77763.97
2023-02-11T15:36:57.919Z,77810.25
2023-02-11T15:37:59.985Z,77844.44
2023-02-11T15:39:19.457Z,77856.50
2023-02-11T15:40:28.076Z,77874.59
2023-02-11T15:41:36.088Z,77882.66
2023-02-11T15:42:51.826Z,77894.72
2023-02-11T15:43:54.473Z,77914.81
2023-02-11T15:45:08.020Z,77924.88
2023-02-11T15:46:13.938Z,77936.94
2023-02-11T15:47:22.651Z,77940.97
2023-02-11T15:48:38.062Z,77947.00
2023-02-11T15:49:45.113Z,77985.22
2023-02-11T15:50:55.985Z,78005.34
2023-02-11T15:51:58.306Z,78019.41
2023-02-11T15:53:05.008Z,78027.47
2023-02-11T15:54:20.117Z,78037.53
2023-02-11T15:55:23.121Z,78039.53
2023-02-11T15:56:43.206Z,78061.66
2023-02-11T15:57:52.974Z,78071.72
2023-02-11T15:58:59.815Z,78095.84
2023-02-11T16:00:05.673Z,78124.00
2023-02-11T16:01:09.212Z,78154.19
2023-02-11T16:02:30.621Z,78168.25
2023-02-11T16:03:33.214Z,78190.41
2023-02-11T16:04:36.202Z,78206.47
2023-02-11T16:05:38.418Z,78236.66
2023-02-11T16:06:42.429Z,78242.69
2023-02-11T16:07:52.622Z,78262.81
2023-02-11T16:08:58.689Z,78276.88
2023-02-11T16:10:00.507Z,78286.94
2023-02-11T16:11:08.988Z,78311.09
2023-02-11T16:12:27.198Z,78295.00
2023-02-11T16:13:34.692Z,78299.00
2023-02-11T16:14:42.266Z,78311.09
2023-02-11T16:15:45.376Z,78313.09
2023-02-11T16:16:50.219Z,78313.09
2023-02-11T16:17:53.158Z,78307.06
2023-02-11T16:19:04.621Z,78305.06
2023-02-11T16:20:19.497Z,78301.03
2023-02-11T16:21:32.101Z,78299.00
2023-02-11T16:22:38.205Z,78297.00
2023-02-11T16:23:42.509Z,78295.00
2023-02-11T16:24:47.684Z,78297.00
2023-02-11T16:25:54.963Z,78297.00
2023-02-11T16:27:02.041Z,78307.06
2023-02-11T16:28:03.957Z,78307.06
2023-02-11T16:29:16.624Z,78307.06
2023-02-11T16:30:27.916Z,78319.13
2023-02-11T16:31:34.473Z,78329.19
2023-02-11T16:32:36.430Z,78349.31
2023-02-11T16:33:38.186Z,78357.34
2023-02-11T16:34:40.312Z,78365.41
2023-02-11T16:35:44.874Z,78365.41
2023-02-11T16:36:48.118Z,78369.41
2023-02-11T16:37:49.853Z,78379.47
2023-02-11T16:38:51.643Z,78399.59
2023-02-11T16:39:54.942Z,78419.72
2023-02-11T16:40:56.725Z,78421.72
2023-02-11T16:41:59.306Z,78431.78
2023-02-11T16:43:01.569Z,78433.78
2023-02-11T16:44:03.648Z,78441.84
2023-02-11T16:45:06.255Z,78447.88
2023-02-11T16:46:09.345Z,78457.94
2023-02-11T16:47:28.060Z,78465.97
2023-02-11T16:48:29.867Z,78474.03
2023-02-11T16:49:36.054Z,78474.03
2023-02-11T16:50:37.758Z,78482.06
2023-02-11T16:51:41.490Z,78490.13
2023-02-11T16:52:43.702Z,78490.13
2023-02-11T16:53:45.465Z,78494.13
2023-02-11T16:54:47.673Z,78496.16
2023-02-11T16:55:50.110Z,78494.13
2023-02-11T16:56:51.953Z,78496.16
2023-02-11T16:57:53.869Z,78500.19
2023-02-11T16:58:56.378Z,78504.19
2023-02-11T16:59:59.213Z,78506.22
2023-02-11T17:01:01.439Z,78514.25
2023-02-11T17:02:03.323Z,78522.31
2023-02-11T17:03:13.046Z,78524.31
2023-02-11T17:04:25.652Z,78544.44
2023-02-11T17:05:27.615Z,78556.50
2023-02-11T17:06:29.386Z,78568.56
2023-02-11T17:07:31.813Z,78566.56
2023-02-11T17:08:34.060Z,78574.59
2023-02-11T17:09:35.838Z,78590.69
2023-02-11T17:10:37.887Z,78596.72
2023-02-11T17:11:39.929Z,78604.78
2023-02-11T17:12:41.963Z,78606.78
2023-02-11T17:13:44.715Z,78606.78
2023-02-11T17:14:46.686Z,78618.88
2023-02-11T17:15:48.504Z,78612.81
2023-02-11T17:16:50.549Z,78608.81
2023-02-11T17:17:52.372Z,78612.81
2023-02-11T17:18:55.470Z,78612.81
2023-02-11T17:19:57.356Z,78616.84
2023-02-11T17:20:59.026Z,78622.88
2023-02-11T17:22:01.418Z,78626.91
2023-02-11T17:23:03.298Z,78630.94
2023-02-11T17:24:05.580Z,78630.94
2023-02-11T17:25:08.336Z,78634.97
2023-02-11T17:26:10.050Z,78628.91
2023-02-11T17:27:14.198Z,78624.91
2023-02-11T17:28:16.435Z,78628.91
2023-02-11T17:29:21.275Z,78636.97
2023-02-11T17:30:23.342Z,78641.00
2023-02-11T17:31:26.258Z,78651.03
2023-02-11T17:32:28.210Z,78659.09
2023-02-11T17:33:30.226Z,78677.19
2023-02-11T17:34:32.776Z,78681.22
2023-02-11T17:35:34.594Z,78691.28
2023-02-11T17:36:36.781Z,78689.28
2023-02-11T17:37:38.987Z,78703.34
2023-02-11T17:38:40.833Z,78709.38
2023-02-11T17:39:42.872Z,78711.41
2023-02-11T17:40:44.603Z,78725.47
2023-02-11T17:41:46.448Z,78727.50
2023-02-11T17:42:48.032Z,78729.50
2023-02-11T17:43:50.180Z,78731.53
2023-02-11T17:44:52.252Z,78739.56
2023-02-11T17:45:54.519Z,78741.56
2023-02-11T17:46:56.296Z,78745.59
2023-02-11T17:47:57.922Z,78747.63
2023-02-11T17:48:59.697Z,78749.63
2023-02-11T17:50:03.181Z,78747.63
2023-02-11T17:51:08.902Z,78755.66
2023-02-11T17:52:10.933Z,78745.59
2023-02-11T17:53:13.949Z,78747.63
2023-02-11T17:54:18.342Z,78743.59
2023-02-11T17:55:20.200Z,78745.59
2023-02-11T17:56:22.084Z,78739.56
2023-02-11T17:57:23.896Z,78747.63
2023-02-11T17:58:26.017Z,78743.59
2023-02-11T17:59:31.698Z,78749.63
2023-02-11T18:00:33.649Z,78751.63
2023-02-11T18:01:37.182Z,78755.66
2023-02-11T18:02:39.062Z,78759.69
2023-02-11T18:03:40.777Z,78761.69
2023-02-11T18:04:42.649Z,78773.75
2023-02-11T18:05:44.391Z,78777.78
2023-02-11T18:06:47.153Z,78781.81
2023-02-11T18:07:48.860Z,78785.84
2023-02-11T18:08:50.669Z,78789.88
2023-02-11T18:09:52.775Z,78787.84
2023-02-11T18:10:54.557Z,78795.91
2023-02-11T18:11:56.391Z,78799.91
2023-02-11T18:12:58.347Z,78803.94
2023-02-11T18:14:01.708Z,78801.94
2023-02-11T18:15:03.505Z,78803.94
2023-02-11T18:16:06.066Z,78801.94
2023-02-11T18:17:07.977Z,78799.91
2023-02-11T18:18:10.136Z,78801.94
2023-02-11T18:19:13.248Z,78793.88
2023-02-11T18:20:15.317Z,78789.88
2023-02-11T18:21:20.145Z,78791.88
2023-02-11T18:22:22.018Z,78787.84
2023-02-11T18:23:23.763Z,78785.84
2023-02-11T18:24:25.555Z,78787.84
2023-02-11T18:25:27.370Z,78783.81
2023-02-11T18:26:29.555Z,78781.81
2023-02-11T18:27:31.190Z,78781.81
2023-02-11T18:28:33.039Z,78777.78
2023-02-11T18:29:35.755Z,78775.78
2023-02-11T18:30:37.535Z,78773.75
2023-02-11T18:31:39.588Z,78779.81
2023-02-11T18:32:41.661Z,78777.78
2023-02-11T18:33:43.565Z,78777.78
2023-02-11T18:34:45.667Z,78775.78
2023-02-11T18:35:49.182Z,78775.78
2023-02-11T18:36:51.913Z,78771.75
2023-02-11T18:37:53.635Z,78775.78
2023-02-11T18:38:57.138Z,78767.72
2023-02-11T18:39:58.886Z,78775.78
2023-02-11T18:41:00.579Z,78771.75
2023-02-11T18:42:02.324Z,78763.72
2023-02-11T18:43:04.081Z,78763.72
2023-02-11T18:44:05.716Z,78759.69
2023-02-11T18:45:09.845Z,78763.72
2023-02-11T18:46:14.035Z,78763.72
2023-02-11T18:47:15.777Z,78763.72
2023-02-11T18:48:18.582Z,78769.75
2023-02-11T18:49:20.504Z,78773.75
2023-02-11T18:50:22.685Z,78769.75
2023-02-11T18:51:25.246Z,78767.72
2023-02-11T18:52:27.169Z,78779.81
2023-02-11T18:53:28.825Z,78775.78
2023-02-11T18:54:30.518Z,78785.84
2023-02-11T18:55:32.296Z,78787.84
2023-02-11T18:56:34.005Z,78789.88
2023-02-11T18:57:35.727Z,78791.88
2023-02-11T18:58:38.393Z,78791.88
2023-02-11T18:59:40.013Z,78793.88
2023-02-11T19:00:44.522Z,78795.91
2023-02-11T19:01:46.961Z,78801.94
2023-02-11T19:02:49.120Z,78809.97
2023-02-11T19:03:51.125Z,78807.97
2023-02-11T19:04:52.782Z,78812.00
2023-02-11T19:05:54.677Z,78812.00
2023-02-11T19:06:56.435Z,78803.94
2023-02-11T19:07:58.117Z,78803.94
2023-02-11T19:09:01.999Z,78803.94
2023-02-11T19:10:05.068Z,78803.94
2023-02-11T19:11:07.125Z,78812.00
2023-02-11T19:12:09.471Z,78812.00
2023-02-11T19:13:11.744Z,78812.00
2023-02-11T19:14:15.832Z,78803.94
2023-02-11T19:15:17.420Z,78797.91
2023-02-11T19:16:19.898Z,78799.91
2023-02-11T19:17:21.794Z,78801.94
2023-02-11T19:18:23.570Z,78801.94
2023-02-11T19:19:28.415Z,78799.91
2023-02-11T19:20:33.484Z,78797.91
2023-02-11T19:21:36.093Z,78793.88
2023-02-11T19:22:37.866Z,78791.88
2023-02-11T19:23:39.570Z,78795.91
2023-02-11T19:24:41.651Z,78791.88
2023-02-11T19:25:48.206Z,78791.88
2023-02-11T19:26:51.907Z,78791.88
2023-02-11T19:27:53.754Z,78789.88
2023-02-11T19:28:56.169Z,78791.88
2023-02-11T19:29:57.913Z,78791.88
2023-02-11T19:31:06.377Z,78791.88
2023-02-11T19:32:08.326Z,78787.84
2023-02-11T19:33:10.642Z,78791.88
2023-02-11T19:34:15.737Z,78795.91
2023-02-11T19:35:17.642Z,78793.88
2023-02-11T19:36:21.366Z,78789.88
2023-02-11T19:37:23.776Z,78789.88
2023-02-11T19:38:25.524Z,78793.88
2023-02-11T19:39:27.495Z,78799.91
2023-02-11T19:40:29.310Z,78795.91
2023-02-11T19:41:33.563Z,78783.81
2023-02-11T19:42:35.412Z,78791.88
2023-02-11T19:43:39.876Z,78797.91
2023-02-11T19:44:41.673Z,78793.88
2023-02-11T19:45:43.374Z,78795.91
2023-02-11T19:46:46.091Z,78801.94
2023-02-11T19:47:47.943Z,78803.94
2023-02-11T19:48:50.312Z,78803.94
2023-02-11T19:49:52.454Z,78812.00
2023-02-11T19:50:54.641Z,78803.94
2023-02-11T19:52:00.243Z,78816.00
2023-02-11T19:53:02.509Z,78816.00
2023-02-11T19:54:04.320Z,78816.00
2023-02-11T19:55:06.612Z,78818.03
2023-02-11T19:56:10.020Z,78824.06
2023-02-11T19:57:11.911Z,78824.06
2023-02-11T19:58:15.412Z,78820.03
2023-02-11T19:59:17.281Z,78822.06
2023-02-11T20:00:19.548Z,78820.03
2023-02-11T20:01:23.746Z,78824.06
2023-02-11T20:02:25.596Z,78820.03
2023-02-11T20:03:27.460Z,78822.06
2023-02-11T20:04:32.246Z,78826.06
2023-02-11T20:05:34.651Z,78820.03
2023-02-11T20:06:36.336Z,78828.09
2023-02-11T20:07:38.143Z,78824.06
2023-02-11T20:08:40.824Z,78820.03
2023-02-11T20:09:42.809Z,78824.06
2023-02-11T20:10:44.619Z,78824.06
2023-02-11T20:11:46.343Z,78828.09
2023-02-11T20:12:48.161Z,78824.06
2023-02-11T20:13:49.837Z,78826.06
2023-02-11T20:14:51.508Z,78826.06
2023-02-11T20:15:53.471Z,78830.09
2023-02-11T20:16:55.428Z,78830.09
2023-02-11T20:17:57.348Z,78838.16
2023-02-11T20:18:59.594Z,78834.13
2023-02-11T20:20:01.622Z,78836.13
2023-02-11T20:21:11.514Z,78838.16
2023-02-11T20:22:13.255Z,78838.16
2023-02-11T20:23:14.855Z,78842.16
2023-02-11T20:24:17.825Z,78840.16
2023-02-11T20:25:19.692Z,78848.19
2023-02-11T20:26:41.727Z,78844.19
2023-02-11T20:27:43.618Z,78836.13
2023-02-11T20:28:46.935Z,78840.16
2023-02-11T20:29:48.819Z,78840.16
2023-02-11T20:30:58.360Z,78838.16
2023-02-11T20:32:00.429Z,78840.16
2023-02-11T20:33:02.251Z,78838.16
2023-02-11T20:34:04.315Z,78836.13
2023-02-11T20:35:09.005Z,78832.09
2023-02-11T20:36:14.367Z,78832.09
2023-02-11T20:37:17.241Z,78830.09
2023-02-11T20:38:18.865Z,78832.09
2023-02-11T20:39:22.776Z,78832.09
2023-02-11T20:40:24.988Z,78830.09
2023-02-11T20:41:30.973Z,78826.06
2023-02-11T20:42:32.817Z,78832.09
2023-02-11T20:43:36.982Z,78832.09
2023-02-11T20:44:39.572Z,78836.13
2023-02-11T20:45:41.444Z,78824.06
2023-02-11T20:46:48.467Z,78818.03
2023-02-11T20:47:50.351Z,78814.00
2023-02-11T20:48:52.840Z,78818.03
2023-02-11T20:49:55.522Z,78822.06
2023-02-11T20:51:04.093Z,78828.09
2023-02-11T20:52:05.881Z,78826.06
2023-02-11T20:53:07.492Z,78828.09
2023-02-11T20:54:18.277Z,78832.09
2023-02-11T20:55:20.137Z,78842.16
2023-02-11T20:56:25.951Z,78838.16
2023-02-11T20:57:28.248Z,78840.16
2023-02-11T20:58:30.235Z,78828.09
2023-02-11T20:59:31.909Z,78834.13
2023-02-11T21:00:35.812Z,78834.13
2023-02-11T21:01:43.331Z,78836.13
2023-02-11T21:02:46.598Z,78840.16
2023-02-11T21:03:57.133Z,78844.19
2023-02-11T21:04:58.784Z,78840.16
2023-02-11T21:06:00.954Z,78836.13
2023-02-11T21:07:03.210Z,78844.19
2023-02-11T21:08:05.592Z,78852.22
2023-02-11T21:09:09.676Z,78862.28
2023-02-11T21:10:11.822Z,78860.28
2023-02-11T21:11:14.550Z,78862.28
2023-02-11T21:12:16.231Z,78862.28
2023-02-11T21:13:18.095Z,78858.25
2023-02-11T21:14:22.342Z,78864.28
2023-02-11T21:15:24.215Z,78856.25
2023-02-11T21:16:26.614Z,78856.25
2023-02-11T21:17:28.312Z,78854.25
2023-02-11T21:18:30.088Z,78858.25
2023-02-11T21:19:31.904Z,78860.28
2023-02-11T21:20:33.683Z,78856.25
2023-02-11T21:21:37.485Z,78858.25
2023-02-11T21:22:39.147Z,78854.25
2023-02-11T21:23:40.998Z,78858.25
2023-02-11T21:24:42.930Z,78854.25
2023-02-11T21:25:44.673Z,78854.25
2023-02-11T21:26:46.340Z,78846.19
2023-02-11T21:27:48.049Z,78846.19
2023-02-11T21:28:50.055Z,78848.19
2023-02-11T21:29:54.638Z,78848.19
2023-02-11T21:30:57.643Z,78850.22
2023-02-11T21:31:59.413Z,78852.22
2023-02-11T21:33:01.129Z,78854.25
2023-02-11T21:34:03.519Z,78858.25
2023-02-11T21:35:05.627Z,78860.28
2023-02-11T21:36:08.151Z,78856.25
2023-02-11T21:37:10.025Z,78856.25
2023-02-11T21:38:12.129Z,78854.25
2023-02-11T21:39:13.979Z,78852.22
2023-02-11T21:40:15.761Z,78846.19
2023-02-11T21:41:18.730Z,78846.19
2023-02-11T21:42:20.652Z,78852.22
2023-02-11T21:43:22.599Z,78852.22
2023-02-11T21:44:24.347Z,78858.25
2023-02-11T21:45:26.144Z,78858.25
2023-02-11T21:46:28.209Z,78854.25
2023-02-11T21:47:29.832Z,78852.22
2023-02-11T21:48:31.765Z,78856.25
2023-02-11T21:49:33.395Z,78846.19
2023-02-11T21:50:42.209Z,78844.19
2023-02-11T21:51:44.053Z,78846.19
2023-02-11T21:52:45.973Z,78844.19
2023-02-11T21:53:48.190Z,78842.16
2023-02-11T21:54:51.294Z,78840.16
2023-02-11T21:56:02.398Z,78844.19
2023-02-11T21:57:04.255Z,78844.19
2023-02-11T21:58:06.637Z,78844.19
2023-02-11T21:59:13.286Z,78844.19
2023-02-11T22:00:15.724Z,78844.19
2023-02-11T22:01:20.004Z,78840.16
2023-02-11T22:02:22.013Z,78840.16
2023-02-11T22:03:24.053Z,78836.13
2023-02-11T22:04:26.606Z,78834.13
2023-02-11T22:05:28.505Z,78828.09
2023-02-11T22:06:33.825Z,78832.09
2023-02-11T22:07:36.507Z,78830.09
2023-02-11T22:08:38.759Z,78832.09
2023-02-11T22:09:40.835Z,78834.13
2023-02-11T22:10:42.869Z,78838.16
2023-02-11T22:11:44.695Z,78852.22
2023-02-11T22:12:46.536Z,78842.16
2023-02-11T22:13:48.657Z,78844.19
2023-02-11T22:14:50.226Z,78848.19
2023-02-11T22:16:03.411Z,78842.16
2023-02-11T22:17:05.770Z,78840.16
2023-02-11T22:18:07.441Z,78844.19
2023-02-11T22:19:09.317Z,78844.19
2023-02-11T22:20:11.732Z,78844.19
2023-02-11T22:21:18.248Z,78844.19
2023-02-11T22:22:19.862Z,78842.16
2023-02-11T22:23:21.557Z,78838.16
2023-02-11T22:24:23.262Z,78848.19
2023-02-11T22:25:25.104Z,78846.19
2023-02-11T22:26:27.814Z,78848.19
2023-02-11T22:27:29.770Z,78850.22
2023-02-11T22:28:31.634Z,78848.19
2023-02-11T22:29:33.293Z,78848.19
2023-02-11T22:30:34.942Z,78844.19
2023-02-11T22:31:36.872Z,78844.19
2023-02-11T22:32:38.524Z,78848.19
2023-02-11T22:33:40.953Z,78852.22
2023-02-11T22:34:42.895Z,78860.28
2023-02-11T22:35:44.968Z,78864.28
2023-02-11T22:36:46.993Z,78862.28
2023-02-11T22:37:48.770Z,78866.31
2023-02-11T22:38:51.586Z,78872.34
2023-02-11T22:39:53.480Z,78872.34
2023-02-11T22:40:55.512Z,78872.34
2023-02-11T22:41:57.776Z,78870.34
2023-02-11T22:42:59.724Z,78876.38
2023-02-11T22:44:01.338Z,78866.31
2023-02-11T22:45:03.328Z,78864.28
2023-02-11T22:46:06.798Z,78872.34
2023-02-11T22:47:08.556Z,78874.34
2023-02-11T22:48:10.278Z,78882.41
2023-02-11T22:49:15.020Z,78884.41
2023-02-11T22:50:16.879Z,78884.41
2023-02-11T22:51:28.122Z,78884.41
2023-02-11T22:52:29.892Z,78886.44
2023-02-11T22:53:31.946Z,78886.44
2023-02-11T22:54:33.588Z,78892.47
2023-02-11T22:55:39.742Z,78894.47
2023-02-11T22:56:41.815Z,78902.53
2023-02-11T22:57:44.131Z,78904.53
2023-02-11T22:58:46.417Z,78902.53
2023-02-11T22:59:48.849Z,78900.50
2023-02-11T23:00:50.686Z,78900.50
2023-02-11T23:01:52.456Z,78894.47
2023-02-11T23:02:54.707Z,78892.47
2023-02-11T23:03:57.058Z,78888.44
2023-02-11T23:04:59.481Z,78894.47
2023-02-11T23:06:01.420Z,78892.47
2023-02-11T23:07:03.072Z,78886.44
2023-02-11T23:08:05.697Z,78888.44
2023-02-11T23:09:09.741Z,78886.44
2023-02-11T23:10:11.807Z,78882.41
2023-02-11T23:11:17.311Z,78884.41
2023-02-11T23:12:19.187Z,78880.41
2023-02-11T23:13:21.483Z,78884.41
2023-02-11T23:14:23.513Z,78882.41
2023-02-11T23:15:25.334Z,78880.41
2023-02-11T23:16:31.204Z,78864.28
2023-02-11T23:17:32.938Z,78866.31
2023-02-11T23:18:36.799Z,78866.31
2023-02-11T23:19:38.384Z,78884.41
2023-02-11T23:20:43.301Z,78870.34
2023-02-11T23:21:45.603Z,78872.34
2023-02-11T23:22:47.601Z,78872.34
2023-02-11T23:23:55.318Z,78876.38
2023-02-11T23:24:57.077Z,78876.38
2023-02-11T23:25:59.080Z,78878.38
2023-02-11T23:27:01.046Z,78880.41
2023-02-11T23:28:02.928Z,78890.44
2023-02-11T23:29:05.489Z,78888.44
2023-02-11T23:30:07.752Z,78882.41
2023-02-11T23:31:21.827Z,78888.44
2023-02-11T23:32:23.680Z,78890.44
2023-02-11T23:33:25.576Z,78894.47
2023-02-11T23:34:27.610Z,78896.50
2023-02-11T23:35:29.299Z,78900.50
2023-02-11T23:36:31.079Z,78892.47
2023-02-11T23:37:32.880Z,78896.50
2023-02-11T23:38:34.653Z,78892.47
2023-02-11T23:39:36.353Z,78896.50
2023-02-11T23:40:38.282Z,78900.50
2023-02-11T23:41:40.019Z,78892.47
2023-02-11T23:42:41.920Z,78896.50
2023-02-11T23:43:44.117Z,78890.44
2023-02-11T23:44:46.624Z,78896.50
2023-02-11T23:45:48.831Z,78882.41
2023-02-11T23:46:50.558Z,78880.41
2023-02-11T23:47:52.691Z,78882.41
2023-02-11T23:48:55.305Z,78880.41
2023-02-11T23:49:59.623Z,78876.38
2023-02-11T23:51:01.998Z,78878.38
2023-02-11T23:52:03.782Z,78876.38
2023-02-11T23:53:06.038Z,78876.38
2023-02-11T23:54:09.255Z,78888.44
2023-02-11T23:55:11.248Z,78874.34
2023-02-11T23:56:24.750Z,78872.34
2023-02-11T23:57:26.744Z,78870.34
2023-02-11T23:58:28.990Z,78880.41
2023-02-11T23:59:30.786Z,78864.28
